sensor_id;sensor_type;location;lat;lon;timestamp;temperature;humidity
57857;DHT22;43683;48.650;9.290;2024-02-26T00:01:27;6.60;69.60
57857;DHT22;43683;48.650;9.290;2024-02-26T00:03:53;6.60;69.70
57857;DHT22;43683;48.650;9.290;2024-02-26T00:06:20;6.60;69.70
57857;DHT22;43683;48.650;9.290;2024-02-26T00:08:46;6.60;70.40
57857;DHT22;43683;48.650;9.290;2024-02-26T00:11:11;6.70;69.70
57857;DHT22;43683;48.650;9.290;2024-02-26T00:13:37;6.70;69.60
57857;DHT22;43683;48.650;9.290;2024-02-26T00:16:13;6.60;69.70
57857;DHT22;43683;48.650;9.290;2024-02-26T00:18:38;6.60;69.70
57857;DHT22;43683;48.650;9.290;2024-02-26T00:21:04;6.60;69.80
57857;DHT22;43683;48.650;9.290;2024-02-26T00:23:30;6.50;70.00
57857;DHT22;43683;48.650;9.290;2024-02-26T00:25:55;6.50;70.10
57857;DHT22;43683;48.650;9.290;2024-02-26T00:28:21;6.50;70.20
57857;DHT22;43683;48.650;9.290;2024-02-26T00:30:47;6.40;70.50
57857;DHT22;43683;48.650;9.290;2024-02-26T00:33:16;6.50;70.30
57857;DHT22;43683;48.650;9.290;2024-02-26T00:35:42;6.50;70.30
57857;DHT22;43683;48.650;9.290;2024-02-26T00:38:07;6.50;70.20
57857;DHT22;43683;48.650;9.290;2024-02-26T00:40:33;6.50;70.20
57857;DHT22;43683;48.650;9.290;2024-02-26T00:42:58;6.50;70.10
57857;DHT22;43683;48.650;9.290;2024-02-26T00:45:24;6.50;70.10
57857;DHT22;43683;48.650;9.290;2024-02-26T00:47:49;6.50;70.10
57857;DHT22;43683;48.650;9.290;2024-02-26T00:50:15;6.60;70.00
57857;DHT22;43683;48.650;9.290;2024-02-26T00:52:40;6.60;70.00
57857;DHT22;43683;48.650;9.290;2024-02-26T00:55:06;6.60;70.00
57857;DHT22;43683;48.650;9.290;2024-02-26T00:57:32;6.60;70.00
57857;DHT22;43683;48.650;9.290;2024-02-26T00:59:58;6.60;70.00
57857;DHT22;43683;48.650;9.290;2024-02-26T01:02:24;6.60;70.00
57857;DHT22;43683;48.650;9.290;2024-02-26T01:04:50;6.60;70.10
57857;DHT22;43683;48.650;9.290;2024-02-26T01:07:15;6.60;70.20
57857;DHT22;43683;48.650;9.290;2024-02-26T01:09:41;6.60;70.20
57857;DHT22;43683;48.650;9.290;2024-02-26T01:12:07;6.60;70.20
57857;DHT22;43683;48.650;9.290;2024-02-26T01:14:32;6.60;70.20
57857;DHT22;43683;48.650;9.290;2024-02-26T01:16:58;6.60;71.00
57857;DHT22;43683;48.650;9.290;2024-02-26T01:19:23;6.50;70.40
57857;DHT22;43683;48.650;9.290;2024-02-26T01:21:49;6.50;70.50
57857;DHT22;43683;48.650;9.290;2024-02-26T01:24:14;6.50;70.60
57857;DHT22;43683;48.650;9.290;2024-02-26T01:26:40;6.40;70.80
57857;DHT22;43683;48.650;9.290;2024-02-26T01:29:06;6.40;71.00
57857;DHT22;43683;48.650;9.290;2024-02-26T01:31:32;6.30;71.20
57857;DHT22;43683;48.650;9.290;2024-02-26T01:33:57;6.30;71.40
57857;DHT22;43683;48.650;9.290;2024-02-26T01:36:23;6.20;71.50
57857;DHT22;43683;48.650;9.290;2024-02-26T01:38:48;6.20;71.70
57857;DHT22;43683;48.650;9.290;2024-02-26T01:41:14;6.20;71.70
57857;DHT22;43683;48.650;9.290;2024-02-26T01:43:40;6.20;71.70
57857;DHT22;43683;48.650;9.290;2024-02-26T01:46:06;6.20;71.90
57857;DHT22;43683;48.650;9.290;2024-02-26T01:48:32;6.20;72.10
57857;DHT22;43683;48.650;9.290;2024-02-26T01:50:58;6.10;72.30
57857;DHT22;43683;48.650;9.290;2024-02-26T01:53:24;6.10;72.60
57857;DHT22;43683;48.650;9.290;2024-02-26T01:55:50;6.10;72.70
57857;DHT22;43683;48.650;9.290;2024-02-26T01:58:15;6.10;73.00
57857;DHT22;43683;48.650;9.290;2024-02-26T02:00:41;6.10;73.10
57857;DHT22;43683;48.650;9.290;2024-02-26T02:03:07;6.10;73.20
57857;DHT22;43683;48.650;9.290;2024-02-26T02:05:33;6.10;73.30
57857;DHT22;43683;48.650;9.290;2024-02-26T02:08:00;6.10;73.40
57857;DHT22;43683;48.650;9.290;2024-02-26T02:10:26;6.10;73.40
57857;DHT22;43683;48.650;9.290;2024-02-26T02:12:53;6.10;73.50
57857;DHT22;43683;48.650;9.290;2024-02-26T02:15:18;6.10;73.60
57857;DHT22;43683;48.650;9.290;2024-02-26T02:17:44;6.10;73.70
57857;DHT22;43683;48.650;9.290;2024-02-26T02:20:15;6.10;73.80
57857;DHT22;43683;48.650;9.290;2024-02-26T02:22:45;6.10;73.90
57857;DHT22;43683;48.650;9.290;2024-02-26T02:25:11;6.20;73.80
57857;DHT22;43683;48.650;9.290;2024-02-26T02:27:36;6.20;74.40
57857;DHT22;43683;48.650;9.290;2024-02-26T02:30:02;6.30;73.60
57857;DHT22;43683;48.650;9.290;2024-02-26T02:32:29;6.30;73.50
57857;DHT22;43683;48.650;9.290;2024-02-26T02:34:55;6.40;73.60
57857;DHT22;43683;48.650;9.290;2024-02-26T02:37:21;6.40;73.60
57857;DHT22;43683;48.650;9.290;2024-02-26T02:39:46;6.40;73.60
57857;DHT22;43683;48.650;9.290;2024-02-26T02:42:12;6.40;73.70
57857;DHT22;43683;48.650;9.290;2024-02-26T02:44:38;6.40;73.60
57857;DHT22;43683;48.650;9.290;2024-02-26T02:47:03;6.40;73.50
57857;DHT22;43683;48.650;9.290;2024-02-26T02:49:29;6.40;73.30
57857;DHT22;43683;48.650;9.290;2024-02-26T02:51:54;6.40;73.20
57857;DHT22;43683;48.650;9.290;2024-02-26T02:54:20;6.40;73.00
57857;DHT22;43683;48.650;9.290;2024-02-26T02:56:46;6.60;72.40
57857;DHT22;43683;48.650;9.290;2024-02-26T02:59:11;6.70;71.90
57857;DHT22;43683;48.650;9.290;2024-02-26T03:01:37;6.70;71.50
57857;DHT22;43683;48.650;9.290;2024-02-26T03:04:02;6.70;71.20
57857;DHT22;43683;48.650;9.290;2024-02-26T03:06:28;6.80;71.10
57857;DHT22;43683;48.650;9.290;2024-02-26T03:08:54;6.80;71.00
57857;DHT22;43683;48.650;9.290;2024-02-26T03:11:20;6.80;70.90
57857;DHT22;43683;48.650;9.290;2024-02-26T03:13:46;6.80;70.90
57857;DHT22;43683;48.650;9.290;2024-02-26T03:16:11;6.70;70.90
57857;DHT22;43683;48.650;9.290;2024-02-26T03:18:39;6.70;70.80
57857;DHT22;43683;48.650;9.290;2024-02-26T03:21:06;6.70;70.70
57857;DHT22;43683;48.650;9.290;2024-02-26T03:23:31;6.70;70.60
57857;DHT22;43683;48.650;9.290;2024-02-26T03:25:58;6.80;70.50
57857;DHT22;43683;48.650;9.290;2024-02-26T03:28:23;6.80;70.30
57857;DHT22;43683;48.650;9.290;2024-02-26T03:30:49;6.80;70.30
57857;DHT22;43683;48.650;9.290;2024-02-26T03:33:14;6.80;70.20
57857;DHT22;43683;48.650;9.290;2024-02-26T03:35:40;6.70;70.50
57857;DHT22;43683;48.650;9.290;2024-02-26T03:38:05;6.60;70.90
57857;DHT22;43683;48.650;9.290;2024-02-26T03:40:31;6.40;71.60
57857;DHT22;43683;48.650;9.290;2024-02-26T03:42:58;6.20;72.00
57857;DHT22;43683;48.650;9.290;2024-02-26T03:45:23;6.00;72.90
57857;DHT22;43683;48.650;9.290;2024-02-26T03:47:49;5.90;73.30
57857;DHT22;43683;48.650;9.290;2024-02-26T03:50:14;5.90;73.70
57857;DHT22;43683;48.650;9.290;2024-02-26T03:52:40;5.90;73.60
57857;DHT22;43683;48.650;9.290;2024-02-26T03:55:05;6.00;73.30
57857;DHT22;43683;48.650;9.290;2024-02-26T03:57:31;6.10;72.90
57857;DHT22;43683;48.650;9.290;2024-02-26T03:59:56;6.30;72.40
57857;DHT22;43683;48.650;9.290;2024-02-26T04:02:22;6.40;71.80
57857;DHT22;43683;48.650;9.290;2024-02-26T04:04:48;6.50;71.50
57857;DHT22;43683;48.650;9.290;2024-02-26T04:07:14;6.60;71.40
57857;DHT22;43683;48.650;9.290;2024-02-26T04:09:39;6.50;71.50
57857;DHT22;43683;48.650;9.290;2024-02-26T04:12:05;6.50;71.90
57857;DHT22;43683;48.650;9.290;2024-02-26T04:14:31;6.40;72.30
57857;DHT22;43683;48.650;9.290;2024-02-26T04:16:56;6.30;72.40
57857;DHT22;43683;48.650;9.290;2024-02-26T04:19:22;6.30;72.60
57857;DHT22;43683;48.650;9.290;2024-02-26T04:21:47;6.30;72.80
57857;DHT22;43683;48.650;9.290;2024-02-26T04:24:13;6.30;72.90
57857;DHT22;43683;48.650;9.290;2024-02-26T04:26:39;6.30;73.00
57857;DHT22;43683;48.650;9.290;2024-02-26T04:29:04;6.30;73.10
57857;DHT22;43683;48.650;9.290;2024-02-26T04:31:30;6.40;73.10
57857;DHT22;43683;48.650;9.290;2024-02-26T04:33:58;6.40;72.90
57857;DHT22;43683;48.650;9.290;2024-02-26T04:36:23;6.50;72.80
57857;DHT22;43683;48.650;9.290;2024-02-26T04:38:51;6.50;72.70
57857;DHT22;43683;48.650;9.290;2024-02-26T04:41:16;6.50;72.50
57857;DHT22;43683;48.650;9.290;2024-02-26T04:43:42;6.50;72.30
57857;DHT22;43683;48.650;9.290;2024-02-26T04:46:08;6.60;72.20
57857;DHT22;43683;48.650;9.290;2024-02-26T04:48:35;6.70;71.80
57857;DHT22;43683;48.650;9.290;2024-02-26T04:51:01;6.70;71.50
57857;DHT22;43683;48.650;9.290;2024-02-26T04:53:27;6.70;71.40
57857;DHT22;43683;48.650;9.290;2024-02-26T04:55:52;6.70;71.80
57857;DHT22;43683;48.650;9.290;2024-02-26T04:58:18;6.60;72.10
57857;DHT22;43683;48.650;9.290;2024-02-26T05:00:44;6.60;72.30
57857;DHT22;43683;48.650;9.290;2024-02-26T05:03:09;6.50;72.40
57857;DHT22;43683;48.650;9.290;2024-02-26T05:05:39;6.50;72.60
57857;DHT22;43683;48.650;9.290;2024-02-26T05:08:05;6.50;72.60
57857;DHT22;43683;48.650;9.290;2024-02-26T05:10:31;6.60;72.20
57857;DHT22;43683;48.650;9.290;2024-02-26T05:12:56;6.60;71.60
57857;DHT22;43683;48.650;9.290;2024-02-26T05:15:22;6.80;71.00
57857;DHT22;43683;48.650;9.290;2024-02-26T05:17:48;6.90;70.40
57857;DHT22;43683;48.650;9.290;2024-02-26T05:20:13;7.00;70.00
57857;DHT22;43683;48.650;9.290;2024-02-26T05:22:39;7.00;69.80
57857;DHT22;43683;48.650;9.290;2024-02-26T05:25:04;7.00;69.70
57857;DHT22;43683;48.650;9.290;2024-02-26T05:27:30;7.00;69.90
57857;DHT22;43683;48.650;9.290;2024-02-26T05:29:55;7.00;70.10
57857;DHT22;43683;48.650;9.290;2024-02-26T05:32:21;6.90;70.30
57857;DHT22;43683;48.650;9.290;2024-02-26T05:34:47;6.90;70.60
57857;DHT22;43683;48.650;9.290;2024-02-26T05:37:12;6.90;70.60
57857;DHT22;43683;48.650;9.290;2024-02-26T05:39:38;6.90;70.80
57857;DHT22;43683;48.650;9.290;2024-02-26T05:42:04;6.70;71.00
57857;DHT22;43683;48.650;9.290;2024-02-26T05:44:29;6.60;71.60
57857;DHT22;43683;48.650;9.290;2024-02-26T05:46:55;6.40;72.30
57857;DHT22;43683;48.650;9.290;2024-02-26T05:49:22;6.30;72.90
57857;DHT22;43683;48.650;9.290;2024-02-26T05:51:47;6.20;73.30
57857;DHT22;43683;48.650;9.290;2024-02-26T05:54:13;6.10;73.60
57857;DHT22;43683;48.650;9.290;2024-02-26T05:56:39;6.10;74.00
57857;DHT22;43683;48.650;9.290;2024-02-26T05:59:04;6.10;74.20
57857;DHT22;43683;48.650;9.290;2024-02-26T06:01:30;6.00;74.40
57857;DHT22;43683;48.650;9.290;2024-02-26T06:03:56;6.00;74.50
57857;DHT22;43683;48.650;9.290;2024-02-26T06:06:22;6.00;74.60
57857;DHT22;43683;48.650;9.290;2024-02-26T06:08:49;5.80;74.90
57857;DHT22;43683;48.650;9.290;2024-02-26T06:11:14;5.60;75.50
57857;DHT22;43683;48.650;9.290;2024-02-26T06:13:40;5.50;76.10
57857;DHT22;43683;48.650;9.290;2024-02-26T06:16:07;5.40;76.50
57857;DHT22;43683;48.650;9.290;2024-02-26T06:18:33;5.30;76.90
57857;DHT22;43683;48.650;9.290;2024-02-26T06:20:58;5.30;76.90
57857;DHT22;43683;48.650;9.290;2024-02-26T06:23:24;5.40;76.90
57857;DHT22;43683;48.650;9.290;2024-02-26T06:25:51;5.40;76.80
57857;DHT22;43683;48.650;9.290;2024-02-26T06:28:16;5.50;76.60
57857;DHT22;43683;48.650;9.290;2024-02-26T06:30:42;5.50;77.20
57857;DHT22;43683;48.650;9.290;2024-02-26T06:33:08;5.60;76.20
57857;DHT22;43683;48.650;9.290;2024-02-26T06:35:33;5.70;76.00
57857;DHT22;43683;48.650;9.290;2024-02-26T06:37:59;5.70;75.90
57857;DHT22;43683;48.650;9.290;2024-02-26T06:40:24;5.60;75.90
57857;DHT22;43683;48.650;9.290;2024-02-26T06:42:50;5.50;76.20
57857;DHT22;43683;48.650;9.290;2024-02-26T06:45:16;5.50;76.70
57857;DHT22;43683;48.650;9.290;2024-02-26T06:47:42;5.40;76.90
57857;DHT22;43683;48.650;9.290;2024-02-26T06:50:08;5.40;77.00
57857;DHT22;43683;48.650;9.290;2024-02-26T06:52:34;5.40;77.00
57857;DHT22;43683;48.650;9.290;2024-02-26T06:54:59;5.40;77.00
57857;DHT22;43683;48.650;9.290;2024-02-26T06:57:25;5.50;77.10
57857;DHT22;43683;48.650;9.290;2024-02-26T06:59:51;5.60;77.00
57857;DHT22;43683;48.650;9.290;2024-02-26T07:02:17;5.70;76.80
57857;DHT22;43683;48.650;9.290;2024-02-26T07:04:42;5.90;76.60
57857;DHT22;43683;48.650;9.290;2024-02-26T07:07:08;6.10;76.20
57857;DHT22;43683;48.650;9.290;2024-02-26T07:09:34;6.20;76.00
57857;DHT22;43683;48.650;9.290;2024-02-26T07:12:00;6.30;75.80
57857;DHT22;43683;48.650;9.290;2024-02-26T07:14:25;6.40;75.80
57857;DHT22;43683;48.650;9.290;2024-02-26T07:16:51;6.40;75.80
57857;DHT22;43683;48.650;9.290;2024-02-26T07:19:16;6.50;75.90
57857;DHT22;43683;48.650;9.290;2024-02-26T07:21:42;6.60;75.80
57857;DHT22;43683;48.650;9.290;2024-02-26T07:24:08;6.70;75.90
57857;DHT22;43683;48.650;9.290;2024-02-26T07:26:33;6.70;75.90
57857;DHT22;43683;48.650;9.290;2024-02-26T07:28:59;6.70;76.00
57857;DHT22;43683;48.650;9.290;2024-02-26T07:31:25;6.80;76.10
57857;DHT22;43683;48.650;9.290;2024-02-26T07:33:51;6.80;76.10
57857;DHT22;43683;48.650;9.290;2024-02-26T07:36:17;6.80;76.20
57857;DHT22;43683;48.650;9.290;2024-02-26T07:38:42;6.80;76.30
57857;DHT22;43683;48.650;9.290;2024-02-26T07:41:08;6.90;76.40
57857;DHT22;43683;48.650;9.290;2024-02-26T07:43:34;6.90;76.30
57857;DHT22;43683;48.650;9.290;2024-02-26T07:45:59;7.00;76.40
57857;DHT22;43683;48.650;9.290;2024-02-26T07:48:25;7.00;76.50
57857;DHT22;43683;48.650;9.290;2024-02-26T07:50:51;7.10;76.60
57857;DHT22;43683;48.650;9.290;2024-02-26T07:53:16;7.10;76.50
57857;DHT22;43683;48.650;9.290;2024-02-26T07:55:42;7.20;76.40
57857;DHT22;43683;48.650;9.290;2024-02-26T07:58:07;7.30;77.00
57857;DHT22;43683;48.650;9.290;2024-02-26T08:00:33;7.40;76.20
57857;DHT22;43683;48.650;9.290;2024-02-26T08:02:58;7.40;76.10
57857;DHT22;43683;48.650;9.290;2024-02-26T08:05:24;7.50;75.90
57857;DHT22;43683;48.650;9.290;2024-02-26T08:07:50;7.50;75.70
57857;DHT22;43683;48.650;9.290;2024-02-26T08:10:16;7.60;75.70
57857;DHT22;43683;48.650;9.290;2024-02-26T08:12:41;7.50;75.60
57857;DHT22;43683;48.650;9.290;2024-02-26T08:15:07;7.60;75.60
57857;DHT22;43683;48.650;9.290;2024-02-26T08:17:33;7.70;75.60
57857;DHT22;43683;48.650;9.290;2024-02-26T08:19:59;7.80;75.50
57857;DHT22;43683;48.650;9.290;2024-02-26T08:22:25;8.00;75.10
57857;DHT22;43683;48.650;9.290;2024-02-26T08:24:51;8.10;74.50
57857;DHT22;43683;48.650;9.290;2024-02-26T08:27:17;8.30;74.30
57857;DHT22;43683;48.650;9.290;2024-02-26T08:29:43;8.30;74.10
57857;DHT22;43683;48.650;9.290;2024-02-26T08:32:08;8.30;73.80
57857;DHT22;43683;48.650;9.290;2024-02-26T08:34:34;8.40;73.60
57857;DHT22;43683;48.650;9.290;2024-02-26T08:36:59;8.50;73.30
57857;DHT22;43683;48.650;9.290;2024-02-26T08:39:25;8.40;73.70
57857;DHT22;43683;48.650;9.290;2024-02-26T08:41:51;8.30;73.80
57857;DHT22;43683;48.650;9.290;2024-02-26T08:44:17;8.40;73.70
57857;DHT22;43683;48.650;9.290;2024-02-26T08:46:42;8.50;73.20
57857;DHT22;43683;48.650;9.290;2024-02-26T08:49:08;8.70;72.50
57857;DHT22;43683;48.650;9.290;2024-02-26T08:51:33;8.90;72.10
57857;DHT22;43683;48.650;9.290;2024-02-26T08:53:59;9.10;71.70
57857;DHT22;43683;48.650;9.290;2024-02-26T08:56:24;9.20;71.20
57857;DHT22;43683;48.650;9.290;2024-02-26T08:58:50;9.40;70.80
57857;DHT22;43683;48.650;9.290;2024-02-26T09:01:18;9.60;70.80
57857;DHT22;43683;48.650;9.290;2024-02-26T09:03:44;9.70;70.60
57857;DHT22;43683;48.650;9.290;2024-02-26T09:06:09;9.90;70.20
57857;DHT22;43683;48.650;9.290;2024-02-26T09:08:37;10.00;69.60
57857;DHT22;43683;48.650;9.290;2024-02-26T09:11:03;10.00;69.20
57857;DHT22;43683;48.650;9.290;2024-02-26T09:13:28;10.00;69.00
57857;DHT22;43683;48.650;9.290;2024-02-26T09:15:54;10.10;69.00
57857;DHT22;43683;48.650;9.290;2024-02-26T09:18:20;10.10;68.90
57857;DHT22;43683;48.650;9.290;2024-02-26T09:20:45;10.20;68.90
57857;DHT22;43683;48.650;9.290;2024-02-26T09:23:11;10.20;68.90
57857;DHT22;43683;48.650;9.290;2024-02-26T09:25:37;10.10;69.00
57857;DHT22;43683;48.650;9.290;2024-02-26T09:28:02;9.90;69.00
57857;DHT22;43683;48.650;9.290;2024-02-26T09:30:28;9.90;69.10
57857;DHT22;43683;48.650;9.290;2024-02-26T09:32:54;9.70;69.20
57857;DHT22;43683;48.650;9.290;2024-02-26T09:35:19;9.60;69.30
57857;DHT22;43683;48.650;9.290;2024-02-26T09:37:46;9.60;69.50
57857;DHT22;43683;48.650;9.290;2024-02-26T09:40:12;9.50;69.50
57857;DHT22;43683;48.650;9.290;2024-02-26T09:42:43;9.40;69.50
57857;DHT22;43683;48.650;9.290;2024-02-26T09:45:12;9.20;69.60
57857;DHT22;43683;48.650;9.290;2024-02-26T09:47:41;9.20;69.90
57857;DHT22;43683;48.650;9.290;2024-02-26T09:50:09;9.30;69.80
57857;DHT22;43683;48.650;9.290;2024-02-26T09:52:36;9.40;69.30
57857;DHT22;43683;48.650;9.290;2024-02-26T09:55:04;9.60;68.90
57857;DHT22;43683;48.650;9.290;2024-02-26T09:57:29;9.90;68.30
57857;DHT22;43683;48.650;9.290;2024-02-26T09:59:59;10.10;67.90
57857;DHT22;43683;48.650;9.290;2024-02-26T10:02:27;10.40;67.10
57857;DHT22;43683;48.650;9.290;2024-02-26T10:04:54;10.70;66.70
57857;DHT22;43683;48.650;9.290;2024-02-26T10:07:22;10.80;66.40
57857;DHT22;43683;48.650;9.290;2024-02-26T10:09:47;11.20;65.70
57857;DHT22;43683;48.650;9.290;2024-02-26T10:12:13;11.40;65.20
57857;DHT22;43683;48.650;9.290;2024-02-26T10:14:41;11.80;64.70
57857;DHT22;43683;48.650;9.290;2024-02-26T10:17:10;12.10;64.10
57857;DHT22;43683;48.650;9.290;2024-02-26T10:19:35;12.30;63.60
57857;DHT22;43683;48.650;9.290;2024-02-26T10:22:01;12.60;63.40
57857;DHT22;43683;48.650;9.290;2024-02-26T10:24:29;12.90;62.70
57857;DHT22;43683;48.650;9.290;2024-02-26T10:26:55;13.30;62.10
57857;DHT22;43683;48.650;9.290;2024-02-26T10:29:23;13.30;61.70
57857;DHT22;43683;48.650;9.290;2024-02-26T10:31:50;13.30;61.50
57857;DHT22;43683;48.650;9.290;2024-02-26T10:34:15;13.50;61.30
57857;DHT22;43683;48.650;9.290;2024-02-26T10:36:42;13.80;60.90
57857;DHT22;43683;48.650;9.290;2024-02-26T10:39:07;14.10;60.20
57857;DHT22;43683;48.650;9.290;2024-02-26T10:41:33;14.10;59.90
57857;DHT22;43683;48.650;9.290;2024-02-26T10:43:58;13.90;59.90
57857;DHT22;43683;48.650;9.290;2024-02-26T10:46:25;13.60;60.00
57857;DHT22;43683;48.650;9.290;2024-02-26T10:48:51;13.40;59.90
57857;DHT22;43683;48.650;9.290;2024-02-26T10:51:28;13.40;59.90
57857;DHT22;43683;48.650;9.290;2024-02-26T10:53:59;13.60;59.10
57857;DHT22;43683;48.650;9.290;2024-02-26T10:56:28;13.50;58.70
57857;DHT22;43683;48.650;9.290;2024-02-26T10:58:57;13.40;58.80
57857;DHT22;43683;48.650;9.290;2024-02-26T11:01:24;13.30;58.90
57857;DHT22;43683;48.650;9.290;2024-02-26T11:03:51;13.60;58.50
57857;DHT22;43683;48.650;9.290;2024-02-26T11:06:21;13.70;58.00
57857;DHT22;43683;48.650;9.290;2024-02-26T11:08:50;13.70;57.70
57857;DHT22;43683;48.650;9.290;2024-02-26T11:11:17;13.60;57.60
57857;DHT22;43683;48.650;9.290;2024-02-26T11:13:46;13.60;57.60
57857;DHT22;43683;48.650;9.290;2024-02-26T11:16:18;13.80;57.30
57857;DHT22;43683;48.650;9.290;2024-02-26T11:18:46;13.80;56.90
57857;DHT22;43683;48.650;9.290;2024-02-26T11:21:15;13.70;57.10
57857;DHT22;43683;48.650;9.290;2024-02-26T11:23:42;13.70;57.10
57857;DHT22;43683;48.650;9.290;2024-02-26T11:26:09;13.70;57.10
57857;DHT22;43683;48.650;9.290;2024-02-26T11:28:37;13.70;57.10
57857;DHT22;43683;48.650;9.290;2024-02-26T11:31:03;13.70;57.10
57857;DHT22;43683;48.650;9.290;2024-02-26T11:33:30;13.80;57.50
57857;DHT22;43683;48.650;9.290;2024-02-26T11:35:56;14.00;57.10
57857;DHT22;43683;48.650;9.290;2024-02-26T11:38:24;14.10;56.30
57857;DHT22;43683;48.650;9.290;2024-02-26T11:40:50;14.40;55.80
57857;DHT22;43683;48.650;9.290;2024-02-26T11:43:16;14.50;55.20
57857;DHT22;43683;48.650;9.290;2024-02-26T11:48:12;14.40;55.20
57857;DHT22;43683;48.650;9.290;2024-02-26T11:50:42;14.40;55.10
57857;DHT22;43683;48.650;9.290;2024-02-26T11:53:28;14.50;54.90
57857;DHT22;43683;48.650;9.290;2024-02-26T11:58:42;14.50;54.50
57857;DHT22;43683;48.650;9.290;2024-02-26T12:01:37;14.50;54.70
57857;DHT22;43683;48.650;9.290;2024-02-26T12:04:05;14.60;54.20
57857;DHT22;43683;48.650;9.290;2024-02-26T12:06:39;14.80;54.20
57857;DHT22;43683;48.650;9.290;2024-02-26T12:09:05;15.10;53.70
57857;DHT22;43683;48.650;9.290;2024-02-26T12:11:32;15.40;53.30
57857;DHT22;43683;48.650;9.290;2024-02-26T12:13:58;15.70;52.90
57857;DHT22;43683;48.650;9.290;2024-02-26T12:16:39;16.10;52.40
57857;DHT22;43683;48.650;9.290;2024-02-26T12:19:09;16.60;51.40
57857;DHT22;43683;48.650;9.290;2024-02-26T12:21:36;16.80;51.30
57857;DHT22;43683;48.650;9.290;2024-02-26T12:24:10;16.90;51.00
57857;DHT22;43683;48.650;9.290;2024-02-26T12:26:37;17.00;50.60
57857;DHT22;43683;48.650;9.290;2024-02-26T12:29:02;16.80;50.70
57857;DHT22;43683;48.650;9.290;2024-02-26T12:31:28;16.40;51.00
57857;DHT22;43683;48.650;9.290;2024-02-26T12:33:54;16.00;51.10
57857;DHT22;43683;48.650;9.290;2024-02-26T12:36:21;15.60;51.40
57857;DHT22;43683;48.650;9.290;2024-02-26T12:38:48;15.30;51.90
57857;DHT22;43683;48.650;9.290;2024-02-26T12:41:16;15.40;51.70
57857;DHT22;43683;48.650;9.290;2024-02-26T12:43:41;15.60;51.40
57857;DHT22;43683;48.650;9.290;2024-02-26T12:46:07;15.80;50.90
57857;DHT22;43683;48.650;9.290;2024-02-26T12:48:32;15.90;50.60
57857;DHT22;43683;48.650;9.290;2024-02-26T12:50:59;16.10;50.20
57857;DHT22;43683;48.650;9.290;2024-02-26T12:53:25;16.20;49.70
57857;DHT22;43683;48.650;9.290;2024-02-26T12:55:51;16.20;49.70
57857;DHT22;43683;48.650;9.290;2024-02-26T12:58:17;16.10;49.90
57857;DHT22;43683;48.650;9.290;2024-02-26T13:00:45;16.10;49.80
57857;DHT22;43683;48.650;9.290;2024-02-26T13:03:12;16.00;49.60
57857;DHT22;43683;48.650;9.290;2024-02-26T13:05:38;15.90;49.70
57857;DHT22;43683;48.650;9.290;2024-02-26T13:08:04;15.70;49.90
57857;DHT22;43683;48.650;9.290;2024-02-26T13:10:29;15.60;50.10
57857;DHT22;43683;48.650;9.290;2024-02-26T13:12:57;15.50;50.10
57857;DHT22;43683;48.650;9.290;2024-02-26T13:15:22;15.40;50.20
57857;DHT22;43683;48.650;9.290;2024-02-26T13:17:49;15.40;50.10
57857;DHT22;43683;48.650;9.290;2024-02-26T13:20:28;15.30;50.10
57857;DHT22;43683;48.650;9.290;2024-02-26T13:23:03;15.20;50.30
57857;DHT22;43683;48.650;9.290;2024-02-26T13:25:30;15.20;50.10
57857;DHT22;43683;48.650;9.290;2024-02-26T13:28:15;15.20;50.30
57857;DHT22;43683;48.650;9.290;2024-02-26T13:30:41;15.10;50.00
57857;DHT22;43683;48.650;9.290;2024-02-26T13:33:11;15.20;50.10
57857;DHT22;43683;48.650;9.290;2024-02-26T13:35:38;15.20;49.80
57857;DHT22;43683;48.650;9.290;2024-02-26T13:38:05;15.20;50.00
57857;DHT22;43683;48.650;9.290;2024-02-26T13:40:32;15.20;50.00
57857;DHT22;43683;48.650;9.290;2024-02-26T13:42:57;15.10;50.00
57857;DHT22;43683;48.650;9.290;2024-02-26T13:45:23;15.10;50.10
57857;DHT22;43683;48.650;9.290;2024-02-26T13:47:48;15.10;50.20
57857;DHT22;43683;48.650;9.290;2024-02-26T13:50:14;15.10;50.10
57857;DHT22;43683;48.650;9.290;2024-02-26T13:52:39;15.20;50.20
57857;DHT22;43683;48.650;9.290;2024-02-26T13:55:05;15.20;50.10
57857;DHT22;43683;48.650;9.290;2024-02-26T13:57:32;15.20;50.00
57857;DHT22;43683;48.650;9.290;2024-02-26T13:59:58;15.40;49.80
57857;DHT22;43683;48.650;9.290;2024-02-26T14:02:23;15.50;49.70
57857;DHT22;43683;48.650;9.290;2024-02-26T14:04:49;15.50;49.60
57857;DHT22;43683;48.650;9.290;2024-02-26T14:07:14;15.50;49.70
57857;DHT22;43683;48.650;9.290;2024-02-26T14:09:42;15.60;49.60
57857;DHT22;43683;48.650;9.290;2024-02-26T14:12:08;15.60;49.90
57857;DHT22;43683;48.650;9.290;2024-02-26T14:14:33;15.70;49.80
57857;DHT22;43683;48.650;9.290;2024-02-26T14:17:01;15.80;49.70
57857;DHT22;43683;48.650;9.290;2024-02-26T14:19:28;15.80;49.70
57857;DHT22;43683;48.650;9.290;2024-02-26T14:21:54;15.70;50.10
57857;DHT22;43683;48.650;9.290;2024-02-26T14:24:19;15.80;50.20
57857;DHT22;43683;48.650;9.290;2024-02-26T14:26:45;16.00;50.00
57857;DHT22;43683;48.650;9.290;2024-02-26T14:29:11;16.10;50.40
57857;DHT22;43683;48.650;9.290;2024-02-26T14:31:36;16.40;49.00
57857;DHT22;43683;48.650;9.290;2024-02-26T14:34:02;16.60;48.80
57857;DHT22;43683;48.650;9.290;2024-02-26T14:36:27;16.90;48.70
57857;DHT22;43683;48.650;9.290;2024-02-26T14:38:54;16.80;48.40
57857;DHT22;43683;48.650;9.290;2024-02-26T14:41:20;16.50;48.50
57857;DHT22;43683;48.650;9.290;2024-02-26T14:43:45;16.00;49.00
57857;DHT22;43683;48.650;9.290;2024-02-26T14:46:11;15.70;49.40
57857;DHT22;43683;48.650;9.290;2024-02-26T14:48:36;15.40;49.90
57857;DHT22;43683;48.650;9.290;2024-02-26T14:51:02;15.10;50.20
57857;DHT22;43683;48.650;9.290;2024-02-26T14:53:28;14.80;50.50
57857;DHT22;43683;48.650;9.290;2024-02-26T14:55:53;14.60;50.90
57857;DHT22;43683;48.650;9.290;2024-02-26T14:58:19;14.40;51.10
57857;DHT22;43683;48.650;9.290;2024-02-26T15:00:45;14.30;51.10
57857;DHT22;43683;48.650;9.290;2024-02-26T15:03:10;14.20;51.20
57857;DHT22;43683;48.650;9.290;2024-02-26T15:05:36;14.10;52.10
57857;DHT22;43683;48.650;9.290;2024-02-26T15:08:01;14.00;51.40
57857;DHT22;43683;48.650;9.290;2024-02-26T15:10:31;14.00;51.50
57857;DHT22;43683;48.650;9.290;2024-02-26T15:12:56;13.90;51.40
57857;DHT22;43683;48.650;9.290;2024-02-26T15:15:22;13.90;51.60
57857;DHT22;43683;48.650;9.290;2024-02-26T15:17:48;13.90;51.60
57857;DHT22;43683;48.650;9.290;2024-02-26T15:20:16;13.80;51.70
57857;DHT22;43683;48.650;9.290;2024-02-26T15:22:42;13.70;51.80
57857;DHT22;43683;48.650;9.290;2024-02-26T15:25:08;13.60;52.00
57857;DHT22;43683;48.650;9.290;2024-02-26T15:27:33;13.40;52.00
57857;DHT22;43683;48.650;9.290;2024-02-26T15:30:00;13.30;52.20
57857;DHT22;43683;48.650;9.290;2024-02-26T15:32:25;13.20;52.40
57857;DHT22;43683;48.650;9.290;2024-02-26T15:34:55;13.10;52.60
57857;DHT22;43683;48.650;9.290;2024-02-26T15:37:21;13.00;52.70
57857;DHT22;43683;48.650;9.290;2024-02-26T15:39:47;12.90;52.90